Connexion

Connexion à votre compte

Identifiant
Mot de passe
Maintenir la connexion active sur ce site

Veuillez saisir l'adresse e-mail associée à votre compte d'utilisateur. Votre identifiant vous sera envoyé à cette adresse.

Nous contacter

 Téléphone : +33 (0)4 79 54 41 81

Coordonnées détaillées et accès : cliquez ici

facebook 770688 960 720  logo instagram large

[source: ADDS]
METAR / TAF
LFLB 010100Z AUTO 01009KT 9999 OVC030 07/03 Q1018 =
TAF LFLB 301400Z 3015/0115 36007KT 9999 OVC030

SR / SS: 06:56 / 15:54 UTC (Lever/Coucher du soleil le 2022-12-01)
JSN Boot template designed by JoomlaShine.com